Time;durP1;ratioP1;P1;durP2;ratioP2;P2;SDS_P1;SDS_P2;PMS_P1;PMS_P2;Temp;Humidity;BMP_temperature;BMP_pressure;BME280_temperature;BME280_humidity;BME280_pressure;Samples;Min_cycle;Max_cycle;Signal;HPM_P1;HPM_P2
2022/08/26 00:02:15;;;;;;;10.55;4.43;;;23.60;60.70;;;;;;5025172;28;20056;-58
2022/08/26 00:04:41;;;;;;;9.48;3.65;;;23.60;60.70;;;;;;5024547;28;20022;-58
2022/08/26 00:07:07;;;;;;;12.25;4.20;;;23.60;60.80;;;;;;5028827;28;20466;-58
2022/08/26 00:09:33;;;;;;;12.07;4.03;;;23.60;60.80;;;;;;5029249;28;20029;-58
2022/08/26 00:11:59;;;;;;;9.02;3.85;;;23.60;60.80;;;;;;5028146;28;20116;-58
2022/08/26 00:14:26;;;;;;;10.13;3.95;;;23.60;60.80;;;;;;5012229;28;20036;-58
2022/08/26 00:16:52;;;;;;;10.65;3.92;;;23.60;60.90;;;;;;5025847;28;20079;-58
2022/08/26 00:19:19;;;;;;;11.32;3.75;;;23.60;60.90;;;;;;5029248;28;20057;-58
2022/08/26 00:21:46;;;;;;;10.30;3.67;;;23.60;60.90;;;;;;5028470;28;20075;-58
2022/08/26 00:24:13;;;;;;;11.23;4.10;;;23.60;61.00;;;;;;5056622;28;20029;-58
2022/08/26 00:26:42;;;;;;;11.50;3.95;;;23.60;61.00;;;;;;5029724;28;20026;-58
2022/08/26 00:29:08;;;;;;;9.68;3.58;;;23.60;61.00;;;;;;5025523;28;20540;-58
2022/08/26 00:31:34;;;;;;;11.25;3.45;;;23.60;61.10;;;;;;5029213;28;20022;-58
2022/08/26 00:34:01;;;;;;;12.55;4.28;;;23.50;61.00;;;;;;5011983;28;20029;-58
2022/08/26 00:36:27;;;;;;;10.63;4.00;;;23.50;61.00;;;;;;5027571;28;20037;-58
2022/08/26 00:38:53;;;;;;;10.35;3.92;;;23.50;61.10;;;;;;5026879;28;20025;-58
2022/08/26 00:41:19;;;;;;;9.32;3.80;;;23.50;61.10;;;;;;5029032;28;20048;-58
2022/08/26 00:43:45;;;;;;;12.38;4.25;;;23.50;61.10;;;;;;5027976;28;20505;-58
2022/08/26 00:46:18;;;;;;;9.57;3.47;;;23.50;61.10;;;;;;5027147;28;20033;-59
2022/08/26 00:48:44;;;;;;;10.52;3.97;;;23.50;61.20;;;;;;5026008;28;20037;-59
2022/08/26 00:51:19;;;;;;;8.57;3.80;;;23.50;61.20;;;;;;5027374;28;20017;-58
2022/08/26 00:53:49;;;;;;;11.10;4.10;;;23.50;61.20;;;;;;5024469;28;20500;-58
2022/08/26 00:56:28;;;;;;;10.68;4.03;;;23.50;61.30;;;;;;5010617;28;20037;-58
2022/08/26 00:58:55;;;;;;;11.43;4.38;;;23.50;61.30;;;;;;5024370;28;20025;-58
2022/08/26 01:01:21;;;;;;;10.50;3.83;;;23.50;61.30;;;;;;5024755;28;20083;-58
2022/08/26 01:03:47;;;;;;;10.73;3.80;;;23.50;61.30;;;;;;5027444;28;20029;-58
2022/08/26 01:06:13;;;;;;;12.27;4.10;;;23.50;61.40;;;;;;5010820;28;20022;-58
2022/08/26 01:08:39;;;;;;;10.35;4.20;;;23.40;61.40;;;;;;5027746;28;20125;-58
2022/08/26 01:11:05;;;;;;;9.80;3.90;;;23.50;61.50;;;;;;5026596;28;20223;-59
2022/08/26 01:13:31;;;;;;;11.20;3.80;;;23.50;61.60;;;;;;5026963;28;20025;-58
2022/08/26 01:16:00;;;;;;;11.25;4.22;;;23.40;61.60;;;;;;5026719;28;20060;-58
2022/08/26 01:18:25;;;;;;;11.02;4.07;;;23.40;61.70;;;;;;5025371;28;20033;-58
2022/08/26 01:21:06;;;;;;;10.77;3.83;;;23.40;61.60;;;;;;5019280;28;20087;-58
2022/08/26 01:23:34;;;;;;;10.13;4.30;;;23.40;61.70;;;;;;5023229;28;20025;-58
2022/08/26 01:26:08;;;;;;;11.50;3.88;;;23.40;61.70;;;;;;5028037;28;20540;-58
2022/08/26 01:28:34;;;;;;;10.07;3.85;;;23.40;61.70;;;;;;5025412;28;20444;-59
2022/08/26 01:31:01;;;;;;;10.20;3.90;;;23.40;61.80;;;;;;5010707;28;20030;-58
2022/08/26 01:34:05;;;;;;;10.48;4.00;;;23.40;61.80;;;;;;5026633;28;20053;-59
2022/08/26 01:36:31;;;;;;;10.88;3.53;;;23.40;61.80;;;;;;5020837;28;20052;-58
2022/08/26 01:38:57;;;;;;;8.27;3.47;;;23.40;61.80;;;;;;5023965;28;20021;-59
2022/08/26 01:41:24;;;;;;;10.90;3.90;;;23.30;61.80;;;;;;5027610;28;20049;-58
2022/08/26 01:43:52;;;;;;;10.85;4.10;;;23.30;61.80;;;;;;5009490;28;20041;-58
2022/08/26 01:46:18;;;;;;;9.52;3.88;;;23.30;61.80;;;;;;5025168;28;20033;-58
2022/08/26 01:48:44;;;;;;;9.80;3.55;;;23.30;61.80;;;;;;5010929;28;20092;-59
2022/08/26 01:51:10;;;;;;;10.20;3.75;;;23.30;61.80;;;;;;5026759;28;20113;-58
2022/08/26 01:53:36;;;;;;;9.38;3.72;;;23.30;61.80;;;;;;5022616;28;20037;-58
2022/08/26 01:56:02;;;;;;;8.93;3.88;;;23.30;62.90;;;;;;5008276;28;20048;-58
2022/08/26 01:58:36;;;;;;;10.52;4.47;;;23.30;61.90;;;;;;5026266;28;20060;-58
2022/08/26 02:01:02;;;;;;;10.25;3.80;;;23.30;61.90;;;;;;5022906;28;20109;-58
2022/08/26 02:03:28;;;;;;;11.45;3.72;;;23.30;61.90;;;;;;5026643;28;20123;-58
2022/08/26 02:05:59;;;;;;;9.38;3.45;;;23.30;63.00;;;;;;5026403;28;20651;-58
2022/08/26 02:08:32;;;;;;;9.65;3.42;;;23.30;61.90;;;;;;5026282;28;20033;-58
2022/08/26 02:10:58;;;;;;;10.73;3.60;;;23.30;62.00;;;;;;5025908;28;20026;-58
2022/08/26 02:13:25;;;;;;;8.13;3.30;;;23.30;62.00;;;;;;5026357;28;20036;-58
2022/08/26 02:15:51;;;;;;;9.13;3.30;;;23.30;62.10;;;;;;5027683;28;20033;-58
2022/08/26 02:18:17;;;;;;;9.02;3.40;;;23.30;62.00;;;;;;5024985;28;20551;-58
2022/08/26 02:20:42;;;;;;;8.32;3.30;;;23.30;62.00;;;;;;5024864;28;20017;-58
2022/08/26 02:23:08;;;;;;;8.50;3.40;;;23.30;62.00;;;;;;5024447;28;20036;-58
2022/08/26 02:25:47;;;;;;;9.40;3.60;;;23.30;62.00;;;;;;5025011;28;20022;-58
2022/08/26 02:28:13;;;;;;;8.55;3.50;;;23.20;62.00;;;;;;5025684;28;20071;-58
2022/08/26 02:30:39;;;;;;;10.18;3.53;;;23.20;62.00;;;;;;5026278;28;20048;-58
2022/08/26 02:33:04;;;;;;;7.93;3.05;;;23.20;62.00;;;;;;5026199;28;20076;-58
2022/08/26 02:35:30;;;;;;;9.02;3.28;;;23.20;62.00;;;;;;5024261;28;20041;-58
2022/08/26 02:37:56;;;;;;;9.85;3.25;;;23.20;62.00;;;;;;5025443;28;20034;-58
2022/08/26 02:40:25;;;;;;;9.80;3.78;;;23.20;62.00;;;;;;5025232;28;20632;-58
2022/08/26 02:42:51;;;;;;;9.43;3.22;;;23.20;62.00;;;;;;5023245;28;20021;-58
2022/08/26 02:45:17;;;;;;;8.07;3.05;;;23.20;62.00;;;;;;5025464;28;20611;-58
2022/08/26 02:47:43;;;;;;;8.80;3.03;;;23.20;62.00;;;;;;5024948;28;20088;-58
2022/08/26 02:50:09;;;;;;;7.22;2.88;;;23.20;62.00;;;;;;5024954;28;20030;-58
2022/08/26 02:52:35;;;;;;;7.63;3.20;;;23.20;62.00;;;;;;5024049;28;20136;-58
2022/08/26 02:55:01;;;;;;;7.90;3.28;;;23.20;62.00;;;;;;5027582;28;20101;-58
2022/08/26 02:57:26;;;;;;;8.20;3.22;;;23.20;62.00;;;;;;5022207;28;20132;-58
2022/08/26 02:59:52;;;;;;;8.07;3.17;;;23.10;62.00;;;;;;5027374;28;20044;-58
2022/08/26 03:02:18;;;;;;;9.20;3.17;;;23.10;62.00;;;;;;5026051;28;20037;-58
2022/08/26 03:04:43;;;;;;;8.52;2.97;;;23.10;62.00;;;;;;5027106;28;20029;-59
2022/08/26 03:07:09;;;;;;;7.72;3.00;;;23.10;62.00;;;;;;5027081;28;20030;-58
2022/08/26 03:09:35;;;;;;;7.90;3.38;;;23.10;62.00;;;;;;5026334;28;20096;-58
2022/08/26 03:12:00;;;;;;;6.88;2.65;;;23.10;62.00;;;;;;5027027;28;20048;-58
2022/08/26 03:14:26;;;;;;;8.43;3.45;;;23.10;62.00;;;;;;5028901;28;20017;-58
2022/08/26 03:16:53;;;;;;;8.98;2.90;;;23.10;62.00;;;;;;5030853;28;20029;-58
2022/08/26 03:19:19;;;;;;;6.88;2.78;;;23.10;62.00;;;;;;5029443;28;20502;-58
2022/08/26 03:21:45;;;;;;;7.05;2.70;;;23.10;61.80;;;;;;5028556;28;20746;-58
2022/08/26 03:24:11;;;;;;;7.35;2.72;;;23.10;61.90;;;;;;5028969;28;20105;-58
2022/08/26 03:26:37;;;;;;;7.15;2.83;;;23.10;61.90;;;;;;5027033;28;20026;-58
2022/08/26 03:31:47;;;;;;;8.73;3.10;;;23.10;61.80;;;;;;5028607;28;20064;-58
2022/08/26 03:34:13;;;;;;;6.93;2.80;;;23.00;61.90;;;;;;5030086;28;20486;-58
2022/08/26 03:36:39;;;;;;;7.93;2.70;;;23.10;61.80;;;;;;5029889;28;20052;-58
2022/08/26 03:39:06;;;;;;;8.10;2.90;;;23.10;61.90;;;;;;5029947;28;20379;-58
2022/08/26 03:41:33;;;;;;;7.13;2.80;;;23.00;61.80;;;;;;5027254;28;20037;-58
2022/08/26 03:43:59;;;;;;;8.60;2.70;;;23.00;61.70;;;;;;5028855;28;20057;-58
2022/08/26 03:46:25;;;;;;;6.28;2.65;;;23.00;61.80;;;;;;5028404;28;20060;-58
2022/08/26 03:48:50;;;;;;;8.77;2.85;;;23.00;61.70;;;;;;5026419;28;20028;-58
2022/08/26 03:51:17;;;;;;;6.63;2.60;;;23.00;61.80;;;;;;5027517;28;20057;-58
2022/08/26 03:53:42;;;;;;;7.60;2.50;;;23.00;61.70;;;;;;5029833;28;20056;-58
2022/08/26 03:56:08;;;;;;;7.07;2.78;;;23.00;61.80;;;;;;5024937;28;20033;-58
2022/08/26 03:58:34;;;;;;;7.38;2.63;;;23.00;61.70;;;;;;5027924;28;20430;-58
2022/08/26 04:01:00;;;;;;;7.55;2.97;;;23.00;61.80;;;;;;5027769;28;20482;-58
2022/08/26 04:06:10;;;;;;;6.35;2.60;;;23.00;61.80;;;;;;5029106;28;20120;-58
2022/08/26 04:08:36;;;;;;;7.90;2.80;;;23.00;61.70;;;;;;5030122;28;20112;-58
2022/08/26 04:11:02;;;;;;;6.68;2.60;;;23.00;61.70;;;;;;5028288;28;20034;-58
2022/08/26 04:13:28;;;;;;;8.63;3.13;;;22.90;61.60;;;;;;5028877;28;20140;-58
2022/08/26 04:15:53;;;;;;;6.90;2.65;;;23.00;61.80;;;;;;5028434;28;20037;-59
2022/08/26 04:18:19;;;;;;;7.03;3.00;;;22.90;61.60;;;;;;5030607;28;20124;-58
2022/08/26 04:20:46;;;;;;;7.20;2.72;;;22.90;61.70;;;;;;5029994;28;20039;-58
2022/08/26 04:23:12;;;;;;;7.13;2.70;;;22.90;61.70;;;;;;5032680;28;20039;-58
2022/08/26 04:25:38;;;;;;;7.75;2.65;;;22.90;61.70;;;;;;5028723;28;20017;-58
2022/08/26 04:28:04;;;;;;;7.38;2.60;;;22.90;61.60;;;;;;5029183;28;20017;-59
2022/08/26 04:30:30;;;;;;;6.80;2.55;;;22.90;61.60;;;;;;5025529;28;20021;-59
2022/08/26 04:32:55;;;;;;;7.07;2.83;;;22.90;61.70;;;;;;5027767;28;20022;-59
2022/08/26 04:35:21;;;;;;;6.15;2.53;;;22.90;61.60;;;;;;5028920;28;20036;-58
2022/08/26 04:37:48;;;;;;;7.57;2.70;;;22.90;61.60;;;;;;5029636;28;20055;-58
2022/08/26 04:40:13;;;;;;;6.93;2.40;;;22.90;61.60;;;;;;5029271;28;20094;-58
2022/08/26 04:42:39;;;;;;;7.50;2.47;;;22.90;61.50;;;;;;5029057;28;20104;-58
2022/08/26 04:45:05;;;;;;;5.75;2.50;;;22.90;61.50;;;;;;5027554;28;20032;-58
2022/08/26 04:47:31;;;;;;;6.15;2.60;;;22.90;61.50;;;;;;5028361;28;20033;-58
2022/08/26 04:49:56;;;;;;;5.43;2.10;;;22.80;61.60;;;;;;5027721;28;20028;-58
2022/08/26 04:52:23;;;;;;;6.25;2.38;;;22.80;61.50;;;;;;5028857;28;20046;-58
2022/08/26 04:54:48;;;;;;;7.60;2.70;;;22.90;61.60;;;;;;5027326;28;20054;-59
2022/08/26 04:57:14;;;;;;;7.07;2.47;;;22.80;61.50;;;;;;5026503;28;20091;-58
2022/08/26 04:59:40;;;;;;;6.65;2.42;;;22.80;61.50;;;;;;5027291;28;20013;-58
2022/08/26 05:02:06;;;;;;;6.15;2.50;;;22.80;61.60;;;;;;5026547;28;20552;-59
2022/08/26 05:04:32;;;;;;;5.47;2.30;;;22.80;61.50;;;;;;5020132;28;20117;-58
2022/08/26 05:06:57;;;;;;;6.43;2.40;;;22.80;61.60;;;;;;5027060;28;20075;-58
2022/08/26 05:09:23;;;;;;;7.00;2.35;;;22.80;61.40;;;;;;5025315;28;20457;-58
2022/08/26 05:11:49;;;;;;;5.93;2.30;;;22.80;61.50;;;;;;5025851;28;20029;-58
2022/08/26 05:14:15;;;;;;;7.05;2.40;;;22.80;61.40;;;;;;5027771;28;20621;-58
2022/08/26 05:16:41;;;;;;;6.63;2.45;;;22.80;61.50;;;;;;5026855;28;20120;-58
2022/08/26 05:19:06;;;;;;;5.18;2.08;;;22.70;62.50;;;;;;5026546;28;20159;-58
2022/08/26 05:21:32;;;;;;;5.93;2.35;;;22.80;61.40;;;;;;5024137;28;20057;-58
2022/08/26 05:23:59;;;;;;;6.38;2.35;;;22.70;61.40;;;;;;5026694;28;20037;-58
2022/08/26 05:26:28;;;;;;;5.93;2.33;;;22.70;61.40;;;;;;5025295;28;20037;-58
2022/08/26 05:28:55;;;;;;;6.95;2.65;;;22.70;61.40;;;;;;5022738;28;20741;-58
2022/08/26 05:31:29;;;;;;;6.55;2.60;;;22.70;61.40;;;;;;5025412;28;20017;-58
2022/08/26 05:33:55;;;;;;;7.00;2.40;;;22.70;61.40;;;;;;5024347;28;20482;-58
2022/08/26 05:36:21;;;;;;;5.95;2.38;;;22.70;61.50;;;;;;5026584;28;20037;-58
2022/08/26 05:38:47;;;;;;;5.00;2.20;;;22.60;61.40;;;;;;5024134;28;20029;-58
2022/08/26 05:41:15;;;;;;;5.90;2.08;;;22.70;61.50;;;;;;5026557;28;20033;-58
2022/08/26 05:43:40;;;;;;;5.68;2.55;;;22.70;61.50;;;;;;5022571;28;20038;-58
2022/08/26 05:46:06;;;;;;;5.55;2.30;;;22.70;61.40;;;;;;5025756;28;20021;-58
2022/08/26 05:48:32;;;;;;;4.95;2.22;;;22.70;61.60;;;;;;5025825;28;20040;-58
2022/08/26 05:51:02;;;;;;;6.45;2.35;;;22.70;61.40;;;;;;5026889;28;20029;-58
2022/08/26 05:53:27;;;;;;;6.65;2.40;;;22.70;61.50;;;;;;5027393;28;20061;-58
2022/08/26 05:55:55;;;;;;;6.22;2.40;;;22.70;61.60;;;;;;5024894;28;20029;-58
2022/08/26 05:58:20;;;;;;;5.53;2.25;;;22.60;61.40;;;;;;5027904;28;20025;-58
2022/08/26 06:00:59;;;;;;;7.18;2.33;;;22.60;61.50;;;;;;5025713;28;20153;-58
2022/08/26 06:03:25;;;;;;;4.70;2.20;;;22.60;61.50;;;;;;5024660;28;20379;-58
2022/08/26 06:05:51;;;;;;;6.85;2.50;;;22.60;61.60;;;;;;5026272;28;20027;-58
2022/08/26 06:08:17;;;;;;;5.38;2.33;;;22.60;61.50;;;;;;5023833;28;20021;-58
2022/08/26 06:10:45;;;;;;;5.55;2.30;;;22.60;61.50;;;;;;5023416;28;20490;-58
2022/08/26 06:13:11;;;;;;;6.47;2.15;;;22.60;61.60;;;;;;5024187;28;20034;-58
2022/08/26 06:15:41;;;;;;;5.20;2.13;;;22.60;61.50;;;;;;5023046;28;20052;-58
2022/08/26 06:18:07;;;;;;;5.50;2.30;;;22.60;61.60;;;;;;5023185;28;20116;-59
2022/08/26 06:20:33;;;;;;;5.72;2.20;;;22.60;61.60;;;;;;5026595;28;20096;-58
2022/08/26 06:25:43;;;;;;;4.40;2.20;;;22.60;61.60;;;;;;5023584;28;20597;-59
2022/08/26 06:28:09;;;;;;;5.65;2.10;;;22.60;61.60;;;;;;5023229;28;20112;-59
2022/08/26 06:30:38;;;;;;;5.25;2.17;;;22.60;61.60;;;;;;5026377;28;20037;-58
2022/08/26 06:33:04;;;;;;;4.35;1.90;;;22.50;61.60;;;;;;5026609;28;20390;-58
2022/08/26 06:35:29;;;;;;;5.40;2.22;;;22.50;61.70;;;;;;5023344;28;20032;-58
2022/08/26 06:37:55;;;;;;;5.28;2.15;;;22.50;61.60;;;;;;5029668;28;20115;-58
2022/08/26 06:40:22;;;;;;;4.60;2.20;;;22.50;61.70;;;;;;5025380;28;20026;-58
2022/08/26 06:42:48;;;;;;;4.40;1.80;;;22.50;61.70;;;;;;5025743;28;20033;-58
2022/08/26 06:45:13;;;;;;;4.40;2.15;;;22.50;61.70;;;;;;5025576;28;20037;-58
2022/08/26 06:47:39;;;;;;;6.72;2.30;;;22.50;61.70;;;;;;5028041;28;20119;-58
2022/08/26 06:50:05;;;;;;;4.82;1.92;;;22.50;61.70;;;;;;5031007;28;20064;-59
2022/08/26 06:52:31;;;;;;;4.93;2.05;;;22.50;61.70;;;;;;5030066;28;20045;-58
2022/08/26 06:54:59;;;;;;;7.05;2.53;;;22.50;61.70;;;;;;5012059;28;20026;-58
2022/08/26 06:57:24;;;;;;;6.05;2.10;;;22.50;61.70;;;;;;5029236;28;20115;-59
2022/08/26 06:59:50;;;;;;;5.97;2.30;;;22.50;61.70;;;;;;5028865;28;20525;-58
2022/08/26 07:02:15;;;;;;;4.85;2.10;;;22.50;61.70;;;;;;5028422;28;20026;-58
2022/08/26 07:04:42;;;;;;;5.72;2.05;;;22.50;61.70;;;;;;5031822;28;20478;-59
2022/08/26 07:07:12;;;;;;;5.40;2.13;;;22.50;61.80;;;;;;5029949;28;20794;-58
2022/08/26 07:09:37;;;;;;;5.97;2.10;;;22.50;61.70;;;;;;5024961;28;20041;-58
2022/08/26 07:12:04;;;;;;;4.32;1.85;;;22.50;61.80;;;;;;5012769;28;20044;-58
2022/08/26 07:14:30;;;;;;;4.40;1.85;;;22.50;61.90;;;;;;5029199;28;20037;-58
2022/08/26 07:16:58;;;;;;;4.93;2.13;;;22.50;61.80;;;;;;5032428;28;20041;-59
2022/08/26 07:19:23;;;;;;;5.43;2.00;;;22.50;61.80;;;;;;5029308;28;20505;-59
2022/08/26 07:21:49;;;;;;;6.47;2.00;;;22.50;61.80;;;;;;5031377;28;20057;-58
2022/08/26 07:24:15;;;;;;;4.20;1.95;;;22.50;61.80;;;;;;5029772;28;20403;-59
2022/08/26 07:26:40;;;;;;;4.80;2.03;;;22.50;61.80;;;;;;5028889;28;20040;-59
2022/08/26 07:29:06;;;;;;;5.00;1.90;;;22.50;61.80;;;;;;5028470;28;20110;-58
2022/08/26 07:31:34;;;;;;;4.93;1.98;;;22.50;61.80;;;;;;5027070;28;20108;-58
2022/08/26 07:34:00;;;;;;;5.38;2.20;;;22.50;61.80;;;;;;5028349;28;20168;-58
2022/08/26 07:36:27;;;;;;;6.10;1.80;;;22.50;61.60;;;;;;5025118;28;20029;-59
2022/08/26 07:38:52;;;;;;;7.60;1.90;;;22.50;61.60;;;;;;5027345;28;20551;-59
2022/08/26 07:41:20;;;;;;;10.18;2.17;;;22.50;61.60;;;;;;5027407;28;20059;-58
2022/08/26 07:43:45;;;;;;;10.05;2.03;;;22.40;61.70;;;;;;5027791;28;20038;-58
2022/08/26 07:46:17;;;;;;;9.98;1.90;;;22.40;61.50;;;;;;5023622;28;20025;-58
2022/08/26 07:48:43;;;;;;;10.05;2.08;;;22.40;61.60;;;;;;5027261;28;20037;-59
2022/08/26 07:51:08;;;;;;;13.05;2.72;;;22.40;62.00;;;;;;5022339;28;20052;-58
2022/08/26 07:53:34;;;;;;;12.23;2.25;;;22.50;61.80;;;;;;5021433;28;20052;-58
2022/08/26 07:56:00;;;;;;;9.73;2.50;;;22.50;61.40;;;;;;5023621;28;20033;-58
2022/08/26 07:58:25;;;;;;;16.05;3.10;;;22.40;61.40;;;;;;5021964;28;20032;-58
2022/08/26 08:00:51;;;;;;;12.52;2.47;;;22.40;61.40;;;;;;5024424;28;20022;-58
2022/08/26 08:03:17;;;;;;;13.55;2.53;;;22.40;61.20;;;;;;5020001;28;20084;-58
2022/08/26 08:05:43;;;;;;;13.77;2.53;;;22.40;61.10;;;;;;5027132;28;20034;-58
2022/08/26 08:08:08;;;;;;;11.85;2.83;;;22.40;61.10;;;;;;5027055;28;20029;-58
2022/08/26 08:10:35;;;;;;;11.05;2.30;;;22.50;61.40;;;;;;5027248;28;20022;-58
2022/08/26 08:13:01;;;;;;;12.88;2.70;;;22.50;61.40;;;;;;5022927;28;20045;-58
2022/08/26 08:15:27;;;;;;;9.95;1.95;;;22.50;60.70;;;;;;5019579;28;20033;-59
2022/08/26 08:17:53;;;;;;;11.70;2.00;;;22.50;60.60;;;;;;5026159;28;20033;-59
2022/08/26 08:20:19;;;;;;;13.05;2.20;;;22.50;60.80;;;;;;5026415;28;20025;-59
2022/08/26 08:22:45;;;;;;;13.02;2.20;;;22.50;60.50;;;;;;5021964;28;20395;-59
2022/08/26 08:25:11;;;;;;;12.30;2.28;;;22.50;61.00;;;;;;5025209;28;20049;-59
2022/08/26 08:27:37;;;;;;;10.98;2.10;;;22.50;60.80;;;;;;5027249;28;20053;-59
2022/08/26 08:30:04;;;;;;;10.55;2.00;;;22.60;60.70;;;;;;5022510;28;20033;-58
2022/08/26 08:32:29;;;;;;;9.70;2.00;;;22.50;60.80;;;;;;5024971;28;20072;-59
2022/08/26 08:34:56;;;;;;;7.28;1.77;;;22.60;60.60;;;;;;5024039;28;20022;-58
2022/08/26 08:37:22;;;;;;;8.65;1.85;;;22.60;60.80;;;;;;5024260;28;20061;-59
2022/08/26 08:39:48;;;;;;;9.30;1.92;;;22.60;60.30;;;;;;5023718;28;21048;-59
2022/08/26 08:42:39;;;;;;;7.80;1.70;;;22.60;59.10;;;;;;5025925;28;20756;-58
2022/08/26 08:45:10;;;;;;;11.23;1.88;;;22.60;59.70;;;;;;5025414;28;20402;-59
2022/08/26 08:47:50;;;;;;;9.25;1.88;;;22.60;59.60;;;;;;5032955;28;20033;-59
2022/08/26 08:50:19;;;;;;;9.43;1.90;;;22.60;60.00;;;;;;5023280;28;20448;-58
2022/08/26 08:52:48;;;;;;;9.60;1.80;;;22.70;59.80;;;;;;5023879;28;20050;-59
2022/08/26 08:55:14;;;;;;;9.27;1.75;;;22.70;59.20;;;;;;5019715;28;20033;-58
2022/08/26 08:58:08;;;;;;;8.82;1.70;;;22.70;59.80;;;;;;5025690;28;20052;-58
2022/08/26 09:00:53;;;;;;;7.25;1.60;;;22.70;59.80;;;;;;5023721;28;20512;-58
2022/08/26 09:03:22;;;;;;;9.43;1.52;;;22.80;58.90;;;;;;5022840;28;20029;-58
2022/08/26 09:05:50;;;;;;;7.43;1.80;;;22.80;59.50;;;;;;5024655;28;20504;-58
2022/08/26 09:08:23;;;;;;;9.18;1.90;;;22.80;59.50;;;;;;5023108;28;20056;-58
2022/08/26 09:10:56;;;;;;;11.30;2.00;;;22.80;59.30;;;;;;5019520;28;20025;-59
2022/08/26 09:13:22;;;;;;;9.43;2.28;;;22.70;57.90;;;;;;5008343;28;20496;-59
2022/08/26 09:16:26;;;;;;;13.77;2.22;;;22.70;59.40;;;;;;5024515;28;20041;-58
2022/08/26 09:19:02;;;;;;;10.95;2.22;;;22.70;59.00;;;;;;5024209;28;20033;-58
2022/08/26 09:21:28;;;;;;;9.18;1.92;;;22.70;58.00;;;;;;5027096;28;20033;-59
2022/08/26 09:23:54;;;;;;;10.50;2.05;;;22.80;58.80;;;;;;5025704;28;20085;-58
2022/08/26 09:26:28;;;;;;;7.65;1.73;;;22.70;58.50;;;;;;5025892;28;20104;-58
2022/08/26 09:29:02;;;;;;;7.90;1.80;;;22.70;57.30;;;;;;5028476;28;20044;-58
2022/08/26 09:31:33;;;;;;;5.82;1.48;;;22.70;57.90;;;;;;5025498;28;20037;-59
2022/08/26 09:34:13;;;;;;;7.07;1.60;;;22.70;57.00;;;;;;5027214;28;20040;-59
2022/08/26 09:36:48;;;;;;;8.95;1.65;;;22.70;57.80;;;;;;5026764;28;20030;-58
2022/08/26 09:39:22;;;;;;;8.02;1.63;;;22.60;56.70;;;;;;5029657;28;20034;-58
2022/08/26 09:42:03;;;;;;;6.35;1.65;;;22.70;57.80;;;;;;5029579;28;20034;-58
2022/08/26 09:44:30;;;;;;;10.52;1.95;;;22.70;57.90;;;;;;5027011;28;20036;-58
2022/08/26 09:47:00;;;;;;;5.82;1.30;;;22.70;57.90;;;;;;5025396;28;20112;-58
2022/08/26 09:49:29;;;;;;;6.90;1.52;;;22.70;57.80;;;;;;5040538;28;20022;-58
2022/08/26 09:52:13;;;;;;;10.30;1.98;;;22.70;57.90;;;;;;5025383;28;20038;-58
2022/08/26 09:54:39;;;;;;;9.63;1.60;;;22.80;57.80;;;;;;5026556;28;20030;-58
2022/08/26 09:57:28;;;;;;;7.78;1.70;;;22.70;57.50;;;;;;5025320;28;20125;-58
2022/08/26 09:59:54;;;;;;;6.35;1.65;;;22.70;56.80;;;;;;5025158;28;20025;-58
2022/08/26 10:02:33;;;;;;;7.43;1.42;;;22.80;57.50;;;;;;5024882;28;20053;-58
2022/08/26 10:05:00;;;;;;;4.93;1.30;;;22.80;56.70;;;;;;5027739;28;20025;-58
2022/08/26 10:07:47;;;;;;;6.28;1.52;;;22.80;57.40;;;;;;5021944;28;20120;-58
2022/08/26 10:10:29;;;;;;;8.27;1.50;;;22.80;57.30;;;;;;5027076;28;20101;-58
2022/08/26 10:13:05;;;;;;;6.80;1.30;;;22.80;56.90;;;;;;5024991;28;20029;-59
2022/08/26 10:15:55;;;;;;;7.10;1.70;;;22.80;56.90;;;;;;5021764;28;20034;-58
2022/08/26 10:18:43;;;;;;;6.43;1.55;;;22.80;57.00;;;;;;5036583;28;20136;-58
2022/08/26 10:21:15;;;;;;;6.60;1.48;;;22.90;57.10;;;;;;5026505;28;20034;-58
2022/08/26 10:23:49;;;;;;;5.78;1.55;;;22.80;57.00;;;;;;5025742;28;20032;-58
2022/08/26 10:26:38;;;;;;;6.43;1.48;;;22.80;57.00;;;;;;5046432;28;20042;-58
2022/08/26 10:29:20;;;;;;;6.10;1.30;;;22.90;56.90;;;;;;5023176;28;20106;-58
2022/08/26 10:31:55;;;;;;;5.07;1.60;;;22.90;57.00;;;;;;5028029;28;20124;-58
2022/08/26 10:34:20;;;;;;;6.55;1.40;;;22.80;56.60;;;;;;5020491;28;20098;-58
2022/08/26 10:36:59;;;;;;;7.90;1.50;;;22.90;56.80;;;;;;5025903;28;20050;-57
2022/08/26 10:39:29;;;;;;;7.72;1.50;;;22.90;56.70;;;;;;5027454;28;20029;-58
2022/08/26 10:42:02;;;;;;;5.72;1.35;;;22.80;56.70;;;;;;5024296;28;20021;-57
2022/08/26 10:44:31;;;;;;;6.18;1.35;;;22.90;56.30;;;;;;5039855;28;20030;-57
2022/08/26 10:47:04;;;;;;;7.63;1.45;;;22.90;56.50;;;;;;5008213;28;20018;-58
2022/08/26 10:49:30;;;;;;;8.30;1.73;;;22.90;56.30;;;;;;5022469;28;20030;-58
2022/08/26 10:52:11;;;;;;;7.18;1.52;;;22.90;55.30;;;;;;5026339;28;20049;-58
2022/08/26 10:54:45;;;;;;;6.70;1.73;;;22.90;56.10;;;;;;5027454;28;20025;-58
2022/08/26 10:57:13;;;;;;;8.43;1.70;;;22.90;56.40;;;;;;5020760;28;20042;-57
2022/08/26 11:01:40;;;;;;;7.90;1.67;;;22.90;55.70;;;;;;5021403;28;20034;-58
2022/08/26 11:03:02;;;;;;;8.50;1.73;;;22.90;56.20;;;;;;5023460;28;20587;-57
2022/08/26 11:05:28;;;;;;;8.23;1.65;;;23.00;56.00;;;;;;5022095;28;20033;-58
2022/08/26 11:08:19;;;;;;;7.18;1.70;;;23.00;56.00;;;;;;5024737;28;20474;-58
2022/08/26 11:10:51;;;;;;;7.28;1.73;;;23.00;56.00;;;;;;5024204;28;20574;-58
2022/08/26 11:13:16;;;;;;;4.93;1.52;;;23.00;55.80;;;;;;5027308;28;20045;-58
2022/08/26 11:15:42;;;;;;;6.38;1.70;;;23.00;56.20;;;;;;5027201;28;20405;-58
2022/08/26 11:18:31;;;;;;;6.43;1.67;;;23.00;55.90;;;;;;5024418;28;20041;-57
2022/08/26 11:20:58;;;;;;;4.70;1.52;;;23.00;55.50;;;;;;5024498;28;20105;-58
2022/08/26 11:23:26;;;;;;;4.88;1.60;;;23.00;56.40;;;;;;5025046;28;20057;-58
2022/08/26 11:25:55;;;;;;;4.78;1.40;;;23.10;55.50;;;;;;5022718;28;20083;-57
2022/08/26 11:28:42;;;;;;;6.32;1.42;;;23.10;55.10;;;;;;5026187;28;20029;-58
2022/08/26 11:31:24;;;;;;;5.88;1.50;;;23.00;54.20;;;;;;5024608;28;20055;-59
2022/08/26 11:33:59;;;;;;;6.38;1.20;;;23.00;54.00;;;;;;5024288;28;20021;-58
2022/08/26 11:36:38;;;;;;;7.43;1.38;;;23.10;54.20;;;;;;5021796;28;20037;-58
2022/08/26 11:39:13;;;;;;;6.55;1.33;;;23.10;55.10;;;;;;5026592;28;20025;-58
2022/08/26 11:41:43;;;;;;;4.90;1.30;;;23.10;54.20;;;;;;5027379;28;20482;-58
2022/08/26 11:44:08;;;;;;;5.82;1.40;;;23.10;54.80;;;;;;5030824;28;20036;-59
2022/08/26 11:46:36;;;;;;;6.47;1.42;;;23.10;54.90;;;;;;5029351;28;20041;-58
2022/08/26 11:49:04;;;;;;;5.68;1.30;;;23.20;54.70;;;;;;5029958;28;20029;-58
2022/08/26 11:51:30;;;;;;;4.43;1.17;;;23.20;55.10;;;;;;5027899;28;20029;-58
2022/08/26 11:54:10;;;;;;;5.72;1.30;;;23.20;55.00;;;;;;5010647;28;20141;-58
2022/08/26 11:56:35;;;;;;;7.82;1.40;;;23.20;54.70;;;;;;5009553;28;20096;-58
2022/08/26 11:59:03;;;;;;;5.57;1.30;;;23.20;54.70;;;;;;5010920;28;20038;-58
2022/08/26 12:01:30;;;;;;;4.90;1.08;;;23.20;54.60;;;;;;5008543;28;20029;-58
2022/08/26 12:03:56;;;;;;;4.85;1.00;;;23.30;54.90;;;;;;5003790;28;20034;-58
2022/08/26 12:06:25;;;;;;;5.95;1.23;;;23.30;54.90;;;;;;5006343;28;20494;-58
2022/08/26 12:08:51;;;;;;;5.95;1.05;;;23.30;54.70;;;;;;5014718;28;20071;-58
2022/08/26 12:11:23;;;;;;;5.20;1.25;;;23.40;54.70;;;;;;5007309;28;20033;-58
2022/08/26 12:13:59;;;;;;;5.20;0.90;;;23.40;55.00;;;;;;5010134;28;20037;-58
2022/08/26 12:16:26;;;;;;;3.35;1.10;;;23.40;54.80;;;;;;5004840;28;20027;-58
2022/08/26 12:18:52;;;;;;;5.57;1.10;;;23.40;55.00;;;;;;5009699;28;20034;-58
2022/08/26 12:21:21;;;;;;;4.40;1.05;;;23.40;54.90;;;;;;5010221;28;20034;-58
2022/08/26 12:23:48;;;;;;;3.70;0.80;;;23.50;55.00;;;;;;5013181;28;20706;-58
2022/08/26 12:26:30;;;;;;;5.03;1.10;;;23.50;55.00;;;;;;4992487;28;20084;-58
2022/08/26 12:28:59;;;;;;;3.90;0.95;;;23.50;54.90;;;;;;5010067;28;20032;-58
2022/08/26 12:31:27;;;;;;;4.60;1.00;;;23.60;54.80;;;;;;5007441;28;20533;-58
2022/08/26 12:33:53;;;;;;;4.95;1.00;;;23.60;54.90;;;;;;5009845;28;20026;-58
2022/08/26 12:36:26;;;;;;;3.05;1.00;;;23.60;55.00;;;;;;5007526;28;20042;-58
2022/08/26 12:38:52;;;;;;;2.05;0.90;;;23.60;55.00;;;;;;4991485;28;20041;-58
2022/08/26 12:41:38;;;;;;;3.97;0.93;;;23.60;55.00;;;;;;5008953;28;20449;-58
2022/08/26 12:44:03;;;;;;;4.15;1.17;;;23.70;54.60;;;;;;5009606;28;20044;-58
2022/08/26 12:46:29;;;;;;;3.08;1.10;;;23.70;54.70;;;;;;5007660;28;20022;-58
2022/08/26 12:48:59;;;;;;;3.10;0.80;;;23.70;54.80;;;;;;5008701;28;20097;-58
2022/08/26 12:51:27;;;;;;;3.08;0.90;;;23.70;54.50;;;;;;5006154;28;20037;-59
2022/08/26 12:53:52;;;;;;;3.20;0.80;;;23.80;54.70;;;;;;5026780;28;20048;-59
2022/08/26 12:56:26;;;;;;;4.07;1.00;;;23.80;54.70;;;;;;5027996;28;20033;-58
2022/08/26 12:59:16;;;;;;;4.85;1.10;;;23.80;54.50;;;;;;5026690;28;20409;-58
2022/08/26 13:01:43;;;;;;;3.00;0.93;;;23.80;54.40;;;;;;5029432;28;20021;-58
2022/08/26 13:04:35;;;;;;;3.70;1.05;;;23.90;54.60;;;;;;5025022;28;20101;-58